Time;durP1;ratioP1;P1;durP2;ratioP2;P2;SDS_P1;SDS_P2;PMS_P1;PMS_P2;Temp;Humidity;BMP_temperature;BMP_pressure;BME280_temperature;BME280_humidity;BME280_pressure;Samples;Min_cycle;Max_cycle;Signal;HPM_P1;HPM_P2
2021/07/01 00:00:36;;;;;;;1.58;1.02;;;;;;;;;;4995073;28;20073;-68
2021/07/01 00:03:04;;;;;;;0.80;0.80;;;;;;;;;;4994782;28;20519;-68
2021/07/01 00:05:30;;;;;;;1.65;0.73;;;;;;;;;;4995183;28;20050;-68
2021/07/01 00:07:57;;;;;;;0.88;0.80;;;;;;;;;;4994665;28;20054;-68
2021/07/01 00:10:25;;;;;;;1.17;0.65;;;;;;;;;;4994658;28;20496;-68
2021/07/01 00:12:53;;;;;;;1.10;0.80;;;;;;;;;;4993319;28;20096;-68
2021/07/01 00:15:22;;;;;;;0.73;0.60;;;;;;;;;;4994635;28;20057;-68
2021/07/01 00:17:49;;;;;;;1.30;0.55;;;;;;;;;;4994865;28;20054;-68
2021/07/01 00:20:16;;;;;;;0.68;0.68;;;;;;;;;;4993533;28;20086;-68
2021/07/01 00:22:43;;;;;;;0.80;0.80;;;;;;;;;;4994427;28;20509;-68
2021/07/01 00:25:10;;;;;;;0.98;0.80;;;;;;;;;;4994489;28;20096;-68
2021/07/01 00:27:37;;;;;;;1.13;1.02;;;;;;;;;;4994508;28;20513;-68
2021/07/01 00:30:05;;;;;;;0.73;0.65;;;;;;;;;;4994162;28;20057;-68
2021/07/01 00:32:32;;;;;;;0.68;0.68;;;;;;;;;;4994422;28;20112;-68
2021/07/01 00:34:58;;;;;;;1.35;0.80;;;;;;;;;;4994192;28;20088;-68
2021/07/01 00:37:26;;;;;;;0.90;0.80;;;;;;;;;;4994344;28;20081;-68
2021/07/01 00:39:52;;;;;;;0.70;0.68;;;;;;;;;;4993293;28;20092;-67
2021/07/01 00:42:19;;;;;;;1.10;0.95;;;;;;;;;;4993997;28;20132;-68
2021/07/01 00:44:45;;;;;;;0.75;0.70;;;;;;;;;;4994371;28;20104;-68
2021/07/01 00:47:12;;;;;;;2.00;0.80;;;;;;;;;;4993913;28;20109;-68
2021/07/01 00:49:39;;;;;;;0.57;0.57;;;;;;;;;;4994039;28;20043;-68
2021/07/01 00:52:05;;;;;;;1.40;0.73;;;;;;;;;;4993650;28;20077;-68
2021/07/01 00:54:32;;;;;;;0.82;0.80;;;;;;;;;;4976769;28;20081;-68
2021/07/01 00:56:59;;;;;;;0.60;0.60;;;;;;;;;;4993756;28;20046;-68
2021/07/01 00:59:25;;;;;;;0.75;0.70;;;;;;;;;;4992621;28;20504;-68
2021/07/01 01:01:52;;;;;;;0.98;0.85;;;;;;;;;;4992429;28;20496;-68
2021/07/01 01:04:18;;;;;;;2.60;0.80;;;;;;;;;;4993892;28;20136;-68
2021/07/01 01:06:45;;;;;;;0.70;0.70;;;;;;;;;;4993723;28;20053;-67
2021/07/01 01:09:11;;;;;;;2.10;0.80;;;;;;;;;;4993458;28;20567;-68
2021/07/01 01:11:39;;;;;;;0.70;0.60;;;;;;;;;;4993448;28;20539;-68
2021/07/01 01:14:05;;;;;;;1.65;0.70;;;;;;;;;;4993589;28;20496;-68
2021/07/01 01:16:32;;;;;;;1.00;0.90;;;;;;;;;;4993663;28;20097;-68
2021/07/01 01:18:59;;;;;;;0.70;0.60;;;;;;;;;;4993253;28;20046;-68
2021/07/01 01:21:27;;;;;;;0.75;0.52;;;;;;;;;;4993475;28;20081;-68
2021/07/01 01:23:54;;;;;;;2.15;1.00;;;;;;;;;;4993205;28;20136;-67
2021/07/01 01:26:21;;;;;;;0.70;0.70;;;;;;;;;;4993496;28;20149;-68
2021/07/01 01:28:49;;;;;;;1.05;0.75;;;;;;;;;;4993276;28;20398;-68
2021/07/01 01:31:16;;;;;;;2.35;0.63;;;;;;;;;;4993129;28;20104;-68
2021/07/01 01:33:42;;;;;;;0.80;0.73;;;;;;;;;;4993088;28;20073;-68
2021/07/01 01:36:09;;;;;;;1.23;1.00;;;;;;;;;;4993106;28;20156;-67
2021/07/01 01:38:36;;;;;;;2.10;0.60;;;;;;;;;;4993072;28;20073;-67
2021/07/01 01:41:03;;;;;;;1.98;0.90;;;;;;;;;;4992873;28;20150;-68
2021/07/01 01:43:29;;;;;;;1.70;0.70;;;;;;;;;;4993032;28;20121;-68
2021/07/01 01:45:56;;;;;;;1.48;0.90;;;;;;;;;;4992879;28;20085;-67
2021/07/01 01:48:23;;;;;;;2.50;0.93;;;;;;;;;;4993018;28;20054;-68
2021/07/01 01:50:49;;;;;;;3.22;0.90;;;;;;;;;;4992930;28;20108;-68
2021/07/01 01:53:16;;;;;;;3.42;0.80;;;;;;;;;;4993079;28;20081;-68
2021/07/01 01:55:42;;;;;;;1.45;1.20;;;;;;;;;;4992777;28;20081;-68
2021/07/01 01:58:09;;;;;;;1.27;1.00;;;;;;;;;;4993040;28;20129;-68
2021/07/01 02:00:37;;;;;;;1.30;1.20;;;;;;;;;;4992799;28;20096;-68
2021/07/01 02:03:03;;;;;;;1.42;1.33;;;;;;;;;;4992558;28;20050;-68
2021/07/01 02:05:30;;;;;;;4.75;1.02;;;;;;;;;;4992568;28;20074;-68
2021/07/01 02:07:57;;;;;;;2.78;1.40;;;;;;;;;;4992557;28;20509;-68
2021/07/01 02:10:29;;;;;;;2.75;1.20;;;;;;;;;;4992419;28;20509;-68
2021/07/01 02:12:56;;;;;;;1.30;1.20;;;;;;;;;;4992320;28;20509;-68
2021/07/01 02:15:24;;;;;;;1.45;1.10;;;;;;;;;;4992542;28;20046;-68
2021/07/01 02:17:51;;;;;;;1.95;1.35;;;;;;;;;;4992909;28;20053;-68
2021/07/01 02:20:19;;;;;;;2.67;1.33;;;;;;;;;;4992808;28;20086;-68
2021/07/01 02:22:46;;;;;;;1.25;0.90;;;;;;;;;;4992631;28;20074;-68
2021/07/01 02:25:13;;;;;;;1.90;1.30;;;;;;;;;;4992171;28;20104;-68
2021/07/01 02:27:40;;;;;;;0.95;0.90;;;;;;;;;;4992304;28;20050;-68
2021/07/01 02:30:09;;;;;;;3.75;1.02;;;;;;;;;;4992267;28;20174;-68
2021/07/01 02:32:36;;;;;;;1.40;0.80;;;;;;;;;;4990992;28;20081;-68
2021/07/01 02:35:06;;;;;;;0.90;0.90;;;;;;;;;;4992091;28;20569;-68
2021/07/01 02:37:33;;;;;;;0.93;0.70;;;;;;;;;;4991998;28;20084;-68
2021/07/01 02:40:01;;;;;;;0.93;0.68;;;;;;;;;;4992250;28;20042;-68
2021/07/01 02:42:27;;;;;;;2.00;1.10;;;;;;;;;;4992206;28;20406;-68
2021/07/01 02:44:54;;;;;;;0.70;0.70;;;;;;;;;;4992190;28;20532;-68
2021/07/01 02:47:20;;;;;;;0.88;0.77;;;;;;;;;;4992147;28;20096;-68
2021/07/01 02:49:47;;;;;;;0.60;0.60;;;;;;;;;;4992116;28;20047;-68
2021/07/01 02:52:14;;;;;;;0.73;0.70;;;;;;;;;;4992013;28;20138;-68
2021/07/01 02:54:40;;;;;;;2.25;0.70;;;;;;;;;;4992096;28;20050;-68
2021/07/01 02:57:07;;;;;;;1.38;0.70;;;;;;;;;;4992002;28;20077;-68
2021/07/01 02:59:33;;;;;;;1.25;0.70;;;;;;;;;;4992143;28;20046;-68
2021/07/01 03:02:00;;;;;;;0.93;0.88;;;;;;;;;;4990715;28;20050;-68
2021/07/01 03:04:26;;;;;;;1.15;0.88;;;;;;;;;;4995565;28;20109;-68
2021/07/01 03:06:53;;;;;;;1.08;0.80;;;;;;;;;;4995792;28;20050;-68
2021/07/01 03:09:20;;;;;;;0.88;0.88;;;;;;;;;;4995888;28;20090;-68
2021/07/01 03:11:46;;;;;;;2.72;0.82;;;;;;;;;;4995949;28;20416;-68
2021/07/01 03:14:13;;;;;;;3.00;0.80;;;;;;;;;;4996182;28;20050;-69
2021/07/01 03:16:39;;;;;;;1.02;0.60;;;;;;;;;;4995714;28;20508;-69
2021/07/01 03:19:06;;;;;;;1.00;0.77;;;;;;;;;;4995630;28;20485;-69
2021/07/01 03:21:33;;;;;;;1.95;0.80;;;;;;;;;;4995426;28;20090;-69
2021/07/01 03:23:59;;;;;;;0.70;0.70;;;;;;;;;;4995570;28;20117;-69
2021/07/01 03:26:26;;;;;;;1.05;0.65;;;;;;;;;;4995295;28;20565;-68
2021/07/01 03:28:52;;;;;;;0.70;0.60;;;;;;;;;;4995367;28;20145;-68
2021/07/01 03:31:19;;;;;;;1.58;0.82;;;;;;;;;;4995112;28;20078;-69
2021/07/01 03:33:45;;;;;;;2.92;0.65;;;;;;;;;;4994232;28;20567;-68
2021/07/01 03:36:12;;;;;;;1.52;0.70;;;;;;;;;;4995050;28;20050;-68
2021/07/01 03:38:39;;;;;;;1.02;0.68;;;;;;;;;;4995549;28;20077;-69
2021/07/01 03:41:06;;;;;;;2.92;0.63;;;;;;;;;;4995173;28;20070;-68
2021/07/01 03:43:38;;;;;;;0.40;0.40;;;;;;;;;;4995308;28;20081;-68
2021/07/01 03:46:04;;;;;;;1.40;0.52;;;;;;;;;;4995062;28;20481;-68
2021/07/01 03:48:31;;;;;;;0.55;0.50;;;;;;;;;;4993928;28;20084;-68
2021/07/01 03:50:57;;;;;;;1.65;0.85;;;;;;;;;;4994857;28;20084;-68
2021/07/01 03:53:24;;;;;;;0.60;0.60;;;;;;;;;;4995154;28;20082;-68
2021/07/01 03:55:50;;;;;;;0.90;0.60;;;;;;;;;;4995124;28;20100;-68
2021/07/01 03:58:17;;;;;;;1.95;0.90;;;;;;;;;;4994877;28;20085;-68
2021/07/01 04:00:43;;;;;;;2.08;0.70;;;;;;;;;;4995044;28;20082;-68
2021/07/01 04:03:10;;;;;;;0.95;0.90;;;;;;;;;;4994556;28;20086;-68
2021/07/01 04:05:36;;;;;;;0.75;0.60;;;;;;;;;;4995019;28;20050;-68
2021/07/01 04:08:03;;;;;;;1.33;0.70;;;;;;;;;;4994676;28;20074;-68
2021/07/01 04:10:30;;;;;;;1.00;0.50;;;;;;;;;;4994599;28;20078;-68
2021/07/01 04:12:56;;;;;;;0.47;0.47;;;;;;;;;;4994537;28;20050;-68
2021/07/01 04:15:23;;;;;;;0.88;0.73;;;;;;;;;;4993454;28;20051;-68
2021/07/01 04:17:49;;;;;;;0.50;0.50;;;;;;;;;;4975028;28;20442;-68
2021/07/01 04:20:17;;;;;;;1.67;0.55;;;;;;;;;;4975030;28;20055;-68
2021/07/01 04:22:44;;;;;;;0.75;0.40;;;;;;;;;;4974637;28;20051;-68
2021/07/01 04:25:11;;;;;;;1.63;0.52;;;;;;;;;;4982846;28;20464;-68
2021/07/01 04:27:37;;;;;;;1.10;0.50;;;;;;;;;;4994541;28;20090;-68
2021/07/01 04:30:05;;;;;;;2.78;0.47;;;;;;;;;;4994226;28;20057;-68
2021/07/01 04:32:32;;;;;;;0.50;0.50;;;;;;;;;;4994271;28;20089;-68
2021/07/01 04:34:58;;;;;;;0.93;0.40;;;;;;;;;;4993910;28;20084;-68
2021/07/01 04:37:25;;;;;;;1.58;0.50;;;;;;;;;;4994410;28;20047;-69
2021/07/01 04:39:52;;;;;;;0.43;0.43;;;;;;;;;;4994249;28;20074;-68
2021/07/01 04:42:19;;;;;;;1.15;0.60;;;;;;;;;;4993895;28;20054;-69
2021/07/01 04:44:45;;;;;;;0.65;0.65;;;;;;;;;;4975118;28;20058;-69
2021/07/01 04:47:12;;;;;;;0.50;0.50;;;;;;;;;;4974454;28;20089;-68
2021/07/01 04:49:39;;;;;;;0.35;0.35;;;;;;;;;;4974798;28;20129;-69
2021/07/01 04:52:05;;;;;;;2.15;0.60;;;;;;;;;;4974353;28;20086;-69
2021/07/01 04:54:32;;;;;;;0.73;0.70;;;;;;;;;;4974591;28;20082;-69
2021/07/01 04:56:58;;;;;;;0.50;0.50;;;;;;;;;;4974242;28;20117;-68
2021/07/01 04:59:25;;;;;;;0.88;0.73;;;;;;;;;;4974565;28;20078;-68
2021/07/01 05:01:53;;;;;;;0.40;0.40;;;;;;;;;;4974216;28;20059;-68
2021/07/01 05:04:20;;;;;;;0.50;0.50;;;;;;;;;;4987706;28;20050;-69
2021/07/01 05:06:46;;;;;;;1.45;0.47;;;;;;;;;;4993679;28;20442;-68
2021/07/01 05:09:13;;;;;;;1.42;0.73;;;;;;;;;;4993579;28;20089;-68
2021/07/01 05:11:39;;;;;;;1.50;0.70;;;;;;;;;;4993472;28;20051;-68
2021/07/01 05:14:06;;;;;;;1.73;0.80;;;;;;;;;;4993218;28;20082;-68
2021/07/01 05:16:33;;;;;;;0.93;0.50;;;;;;;;;;4993339;28;20137;-69
2021/07/01 05:19:01;;;;;;;1.63;0.70;;;;;;;;;;4993238;28;20089;-69
2021/07/01 05:21:28;;;;;;;0.57;0.50;;;;;;;;;;4993014;28;20081;-69
2021/07/01 05:23:55;;;;;;;1.88;0.57;;;;;;;;;;4993207;28;20469;-69
2021/07/01 05:26:22;;;;;;;0.63;0.40;;;;;;;;;;4992982;28;20077;-69
2021/07/01 05:28:48;;;;;;;0.50;0.40;;;;;;;;;;4993037;28;20046;-69
2021/07/01 05:31:35;;;;;;;0.50;0.50;;;;;;;;;;4990986;28;20056;-68
2021/07/01 05:34:02;;;;;;;1.52;0.47;;;;;;;;;;4991447;28;20516;-71
2021/07/01 05:36:28;;;;;;;2.92;0.43;;;;;;;;;;4992567;28;20042;-72
2021/07/01 05:38:55;;;;;;;0.88;0.88;;;;;;;;;;4993438;28;20046;-71
2021/07/01 05:41:21;;;;;;;1.02;0.60;;;;;;;;;;4992056;28;20096;-68
2021/07/01 05:43:48;;;;;;;1.23;0.70;;;;;;;;;;4992421;28;20046;-68
2021/07/01 05:46:15;;;;;;;1.88;0.60;;;;;;;;;;4991594;28;20077;-69
2021/07/01 05:48:42;;;;;;;0.80;0.80;;;;;;;;;;4992072;28;20054;-69
2021/07/01 05:51:11;;;;;;;0.88;0.70;;;;;;;;;;4991958;28;20070;-69
2021/07/01 05:53:59;;;;;;;1.48;0.50;;;;;;;;;;4992486;28;20085;-74
2021/07/01 05:56:26;;;;;;;0.65;0.57;;;;;;;;;;4992404;28;20096;-74
2021/07/01 05:58:53;;;;;;;0.77;0.70;;;;;;;;;;4992067;28;20054;-72
2021/07/01 06:01:20;;;;;;;1.02;0.60;;;;;;;;;;4992359;28;20073;-71
2021/07/01 06:03:47;;;;;;;0.95;0.68;;;;;;;;;;4994197;28;20538;-71
2021/07/01 06:06:14;;;;;;;1.02;0.68;;;;;;;;;;4991596;28;20062;-67
2021/07/01 06:08:41;;;;;;;1.00;0.93;;;;;;;;;;4990682;28;20056;-74
2021/07/01 06:11:08;;;;;;;0.80;0.70;;;;;;;;;;4991516;28;20073;-75
2021/07/01 06:13:42;;;;;;;0.77;0.60;;;;;;;;;;4991143;28;20053;-73
2021/07/01 06:16:12;;;;;;;1.33;0.90;;;;;;;;;;4992299;28;20125;-73
2021/07/01 06:18:40;;;;;;;1.30;0.82;;;;;;;;;;4993752;28;20046;-73
2021/07/01 06:21:07;;;;;;;1.58;0.80;;;;;;;;;;4992466;28;20077;-70
2021/07/01 06:23:37;;;;;;;0.60;0.60;;;;;;;;;;4991652;28;20097;-67
2021/07/01 06:26:04;;;;;;;0.63;0.60;;;;;;;;;;4990564;28;20449;-67
2021/07/01 06:28:33;;;;;;;2.65;1.85;;;;;;;;;;4987786;28;20050;-68
2021/07/01 06:31:00;;;;;;;2.90;2.00;;;;;;;;;;4987949;28;20078;-68
2021/07/01 06:33:26;;;;;;;2.63;1.85;;;;;;;;;;4982931;28;20046;-68
2021/07/01 06:35:55;;;;;;;2.85;1.25;;;;;;;;;;4970093;28;20055;-67
2021/07/01 06:38:23;;;;;;;4.63;1.17;;;;;;;;;;4952269;28;20078;-68
2021/07/01 06:40:50;;;;;;;2.17;0.70;;;;;;;;;;4981550;28;20046;-67
2021/07/01 06:43:20;;;;;;;4.65;1.00;;;;;;;;;;4989344;28;20105;-67
2021/07/01 06:45:48;;;;;;;2.05;0.80;;;;;;;;;;4989101;28;20516;-71
2021/07/01 06:48:15;;;;;;;1.20;1.00;;;;;;;;;;4980328;28;20493;-68
2021/07/01 06:50:41;;;;;;;1.88;0.75;;;;;;;;;;4988884;28;20105;-68
2021/07/01 06:53:08;;;;;;;1.85;0.80;;;;;;;;;;4988504;28;20077;-69
2021/07/01 06:55:35;;;;;;;0.77;0.77;;;;;;;;;;4988592;28;20565;-68
2021/07/01 06:58:01;;;;;;;1.70;0.80;;;;;;;;;;4992245;28;20460;-68
2021/07/01 07:00:28;;;;;;;1.30;1.15;;;;;;;;;;5006554;28;20077;-68
2021/07/01 07:02:55;;;;;;;2.95;0.70;;;;;;;;;;5007917;28;20058;-69
2021/07/01 07:05:22;;;;;;;0.95;0.73;;;;;;;;;;4992006;28;20058;-68
2021/07/01 07:07:49;;;;;;;2.25;0.65;;;;;;;;;;5009305;28;20073;-68
2021/07/01 07:10:19;;;;;;;1.35;0.77;;;;;;;;;;5009275;28;20081;-68
2021/07/01 07:12:48;;;;;;;0.70;0.55;;;;;;;;;;5002242;28;20215;-68
2021/07/01 07:15:18;;;;;;;2.17;0.75;;;;;;;;;;4989814;28;20069;-68
2021/07/01 07:17:48;;;;;;;1.30;0.90;;;;;;;;;;4989782;28;20054;-69
2021/07/01 07:20:16;;;;;;;2.78;0.75;;;;;;;;;;4989358;28;20528;-68
2021/07/01 07:22:42;;;;;;;2.13;0.85;;;;;;;;;;4972789;28;20492;-69
2021/07/01 07:25:11;;;;;;;1.58;0.90;;;;;;;;;;4988280;28;20105;-69
2021/07/01 07:27:39;;;;;;;1.45;1.27;;;;;;;;;;4989642;28;20056;-69
2021/07/01 07:30:07;;;;;;;2.40;1.20;;;;;;;;;;4977707;28;20047;-66
2021/07/01 07:32:34;;;;;;;1.90;1.20;;;;;;;;;;4986428;28;20058;-67
2021/07/01 07:35:02;;;;;;;1.58;0.90;;;;;;;;;;4953915;28;20058;-69
2021/07/01 07:37:29;;;;;;;1.77;1.30;;;;;;;;;;4977071;28;20470;-73
2021/07/01 07:39:56;;;;;;;2.40;1.17;;;;;;;;;;4975812;28;20104;-73
2021/07/01 07:42:22;;;;;;;5.68;1.33;;;;;;;;;;4974982;28;20078;-69
2021/07/01 07:44:50;;;;;;;2.78;1.20;;;;;;;;;;4982582;28;20074;-69
2021/07/01 07:47:16;;;;;;;2.65;1.45;;;;;;;;;;4979214;28;20462;-70
2021/07/01 07:49:43;;;;;;;2.63;1.35;;;;;;;;;;4992430;28;20086;-68
2021/07/01 07:52:12;;;;;;;2.63;1.33;;;;;;;;;;4995032;28;20197;-69
2021/07/01 07:54:46;;;;;;;2.47;1.17;;;;;;;;;;4994374;28;20362;-68
2021/07/01 07:57:14;;;;;;;3.28;1.25;;;;;;;;;;4993497;28;20046;-67
2021/07/01 07:59:43;;;;;;;4.55;1.70;;;;;;;;;;4994851;28;20054;-68
2021/07/01 08:02:36;;;;;;;1.80;1.27;;;;;;;;;;4994621;28;20042;-68
2021/07/01 08:05:04;;;;;;;3.75;1.65;;;;;;;;;;4989351;28;20425;-68
2021/07/01 08:07:31;;;;;;;3.33;1.40;;;;;;;;;;4977794;28;20081;-68
2021/07/01 08:09:59;;;;;;;1.70;1.20;;;;;;;;;;4993560;28;20485;-68
2021/07/01 08:12:26;;;;;;;2.75;1.30;;;;;;;;;;4993473;28;20082;-68
2021/07/01 08:14:52;;;;;;;3.20;1.92;;;;;;;;;;4993329;28;20089;-67
2021/07/01 08:17:19;;;;;;;1.70;1.60;;;;;;;;;;4993433;28;20050;-69
2021/07/01 08:19:46;;;;;;;3.03;1.48;;;;;;;;;;4994467;28;20437;-68
2021/07/01 08:22:12;;;;;;;4.32;1.65;;;;;;;;;;4994447;28;20367;-68
2021/07/01 08:24:39;;;;;;;1.60;1.50;;;;;;;;;;4994634;28;20092;-69
2021/07/01 08:27:06;;;;;;;2.08;1.60;;;;;;;;;;4994410;28;20078;-67
2021/07/01 08:29:33;;;;;;;3.03;1.70;;;;;;;;;;4977407;28;20081;-69
2021/07/01 08:32:05;;;;;;;2.00;1.83;;;;;;;;;;4992834;28;20490;-68
2021/07/01 08:34:35;;;;;;;3.10;2.22;;;;;;;;;;4992967;28;20490;-68
2021/07/01 08:37:01;;;;;;;4.47;2.58;;;;;;;;;;4992922;28;20532;-68
2021/07/01 08:39:29;;;;;;;4.13;1.70;;;;;;;;;;4994265;28;20466;-68
2021/07/01 08:41:57;;;;;;;4.00;1.95;;;;;;;;;;4993922;28;20086;-67
2021/07/01 08:44:29;;;;;;;4.32;1.70;;;;;;;;;;4977086;28;20046;-67
2021/07/01 08:47:20;;;;;;;2.38;1.58;;;;;;;;;;4992768;28;20090;-68
2021/07/01 08:49:55;;;;;;;2.95;1.67;;;;;;;;;;4994253;28;20050;-69
2021/07/01 08:52:24;;;;;;;3.08;1.60;;;;;;;;;;4993911;28;20486;-68
2021/07/01 08:54:58;;;;;;;2.72;2.00;;;;;;;;;;4993753;28;20054;-69
2021/07/01 08:57:33;;;;;;;1.67;1.58;;;;;;;;;;4993957;28;20096;-68
2021/07/01 09:00:19;;;;;;;1.92;1.65;;;;;;;;;;4993055;28;20391;-68
2021/07/01 09:03:03;;;;;;;4.40;2.05;;;;;;;;;;4993580;28;20089;-69
2021/07/01 09:05:38;;;;;;;3.88;1.50;;;;;;;;;;4993787;28;20479;-69
2021/07/01 09:08:09;;;;;;;2.10;1.70;;;;;;;;;;4993712;28;20054;-69
2021/07/01 09:10:36;;;;;;;3.30;1.75;;;;;;;;;;4993486;28;20043;-68
2021/07/01 09:13:08;;;;;;;2.42;2.13;;;;;;;;;;4993172;28;20054;-68
2021/07/01 09:15:35;;;;;;;2.42;1.70;;;;;;;;;;5016817;22;20053;-66
2021/07/01 09:18:03;;;;;;;1.80;1.70;;;;;;;;;;4993510;28;20081;-66
2021/07/01 09:20:36;;;;;;;1.92;1.80;;;;;;;;;;4992315;28;20074;-66
2021/07/01 09:23:05;;;;;;;1.90;1.77;;;;;;;;;;4993186;28;20050;-67
2021/07/01 09:25:31;;;;;;;4.43;1.98;;;;;;;;;;4992542;28;20552;-67
2021/07/01 09:27:59;;;;;;;2.42;1.83;;;;;;;;;;4993085;28;20051;-66
2021/07/01 09:30:27;;;;;;;3.08;2.00;;;;;;;;;;4992836;28;20077;-67
2021/07/01 09:32:57;;;;;;;2.25;2.00;;;;;;;;;;4991999;28;20137;-67
2021/07/01 09:35:25;;;;;;;3.90;2.13;;;;;;;;;;4990595;28;20062;-70
2021/07/01 09:37:53;;;;;;;3.03;1.80;;;;;;;;;;4988166;28;20509;-67
2021/07/01 09:40:22;;;;;;;4.90;2.20;;;;;;;;;;4982315;28;20073;-67
2021/07/01 09:42:59;;;;;;;3.05;1.90;;;;;;;;;;4986279;28;20133;-67
2021/07/01 09:45:27;;;;;;;2.20;2.00;;;;;;;;;;4982695;28;21176;-67
2021/07/01 09:48:09;;;;;;;2.95;2.03;;;;;;;;;;4984767;28;20058;-70
2021/07/01 09:50:50;;;;;;;3.93;1.83;;;;;;;;;;4979165;28;20093;-71
2021/07/01 09:53:29;;;;;;;3.17;2.22;;;;;;;;;;4980080;28;20046;-71
2021/07/01 09:55:55;;;;;;;2.72;1.90;;;;;;;;;;4976969;28;20101;-66
2021/07/01 09:58:22;;;;;;;2.20;2.00;;;;;;;;;;4981076;28;20077;-66
2021/07/01 10:00:50;;;;;;;1.98;1.70;;;;;;;;;;4959595;28;20082;-67
2021/07/01 10:03:16;;;;;;;2.22;1.95;;;;;;;;;;4982079;28;20065;-67
2021/07/01 10:05:43;;;;;;;4.95;2.17;;;;;;;;;;4981405;28;20109;-67
2021/07/01 10:08:09;;;;;;;3.75;2.10;;;;;;;;;;4977379;28;20398;-67
2021/07/01 10:10:43;;;;;;;5.60;2.20;;;;;;;;;;4979959;28;20054;-67
2021/07/01 10:13:16;;;;;;;1.98;1.70;;;;;;;;;;4975090;28;20055;-67
2021/07/01 10:15:43;;;;;;;3.58;2.45;;;;;;;;;;4977521;28;20440;-67
2021/07/01 10:18:13;;;;;;;3.22;2.40;;;;;;;;;;4978391;28;20046;-67
2021/07/01 10:20:54;;;;;;;2.25;2.00;;;;;;;;;;4978646;28;20051;-67
2021/07/01 10:23:35;;;;;;;2.50;2.30;;;;;;;;;;4978095;28;20419;-67
2021/07/01 10:26:13;;;;;;;3.03;2.40;;;;;;;;;;4974702;28;20054;-66
2021/07/01 10:28:40;;;;;;;2.20;2.00;;;;;;;;;;4975715;28;20429;-67
2021/07/01 10:31:10;;;;;;;2.95;2.42;;;;;;;;;;4974196;28;20425;-67
2021/07/01 10:33:38;;;;;;;3.35;3.05;;;;;;;;;;4974980;28;20058;-66
2021/07/01 10:36:06;;;;;;;5.32;2.90;;;;;;;;;;4977254;28;20081;-66
2021/07/01 10:38:46;;;;;;;3.42;3.03;;;;;;;;;;4982682;28;20083;-66
2021/07/01 10:41:37;;;;;;;4.78;3.53;;;;;;;;;;4978548;28;20042;-67
2021/07/01 10:44:05;;;;;;;3.45;3.15;;;;;;;;;;4979182;28;20054;-68
2021/07/01 10:46:44;;;;;;;3.22;2.08;;;;;;;;;;4982177;28;20137;-66
2021/07/01 10:49:12;;;;;;;2.28;2.08;;;;;;;;;;4977407;28;20058;-66
2021/07/01 10:51:58;;;;;;;2.40;2.20;;;;;;;;;;4983723;28;20038;-66
2021/07/01 10:54:26;;;;;;;3.25;2.13;;;;;;;;;;4984397;28;20305;-66
2021/07/01 10:57:06;;;;;;;4.15;2.60;;;;;;;;;;4978666;28;20058;-66
2021/07/01 10:59:45;;;;;;;2.80;2.38;;;;;;;;;;4979754;28;20047;-66
2021/07/01 11:02:12;;;;;;;2.80;2.20;;;;;;;;;;4982283;28;20084;-66
2021/07/01 11:04:50;;;;;;;4.57;2.58;;;;;;;;;;4963310;28;20054;-67
2021/07/01 11:07:18;;;;;;;3.42;2.70;;;;;;;;;;4979307;28;20053;-67
2021/07/01 11:09:47;;;;;;;2.95;2.65;;;;;;;;;;4980118;28;20051;-66
2021/07/01 11:12:20;;;;;;;3.33;2.50;;;;;;;;;;4977988;28;20047;-67
2021/07/01 11:14:48;;;;;;;4.90;3.35;;;;;;;;;;4984118;28;20046;-67
2021/07/01 11:17:40;;;;;;;4.18;2.38;;;;;;;;;;4986263;28;20055;-66
2021/07/01 11:20:21;;;;;;;5.60;2.50;;;;;;;;;;4986446;28;20506;-66
2021/07/01 11:22:55;;;;;;;2.58;2.38;;;;;;;;;;4984813;28;20465;-66
2021/07/01 11:25:42;;;;;;;4.38;1.88;;;;;;;;;;4989986;28;20070;-67
2021/07/01 11:28:26;;;;;;;3.13;2.45;;;;;;;;;;4991994;28;20050;-67
2021/07/01 11:30:55;;;;;;;4.10;2.33;;;;;;;;;;4988938;28;20050;-66
2021/07/01 11:33:22;;;;;;;4.15;2.42;;;;;;;;;;4991577;28;20085;-67
2021/07/01 11:35:49;;;;;;;3.67;3.10;;;;;;;;;;4991503;28;20050;-67
2021/07/01 11:38:29;;;;;;;4.25;2.50;;;;;;;;;;4986741;28;20089;-66
2021/07/01 11:41:00;;;;;;;3.85;2.60;;;;;;;;;;4980758;28;20124;-67
2021/07/01 11:43:28;;;;;;;2.63;2.10;;;;;;;;;;4982316;28;20133;-66
2021/07/01 11:45:54;;;;;;;4.82;2.63;;;;;;;;;;4981597;28;20498;-66
2021/07/01 11:48:23;;;;;;;3.08;2.25;;;;;;;;;;4982631;28;20050;-66
2021/07/01 11:50:53;;;;;;;5.72;2.65;;;;;;;;;;4982313;28;20094;-67
2021/07/01 11:53:21;;;;;;;2.83;2.25;;;;;;;;;;4985040;28;20093;-66
2021/07/01 11:55:48;;;;;;;5.20;2.25;;;;;;;;;;4981100;28;20093;-66
2021/07/01 11:58:16;;;;;;;2.67;2.13;;;;;;;;;;4982454;28;20465;-67
2021/07/01 12:00:42;;;;;;;3.92;2.70;;;;;;;;;;4980963;28;20054;-67
2021/07/01 12:03:10;;;;;;;3.05;2.50;;;;;;;;;;4982313;28;20038;-66
2021/07/01 12:05:55;;;;;;;2.38;2.17;;;;;;;;;;4981410;28;20085;-66
2021/07/01 12:08:21;;;;;;;3.13;1.95;;;;;;;;;;4963244;28;20047;-66
2021/07/01 12:10:57;;;;;;;3.60;2.30;;;;;;;;;;4966637;28;20089;-66
2021/07/01 12:13:33;;;;;;;3.08;2.17;;;;;;;;;;4980338;28;20093;-66
2021/07/01 12:16:12;;;;;;;3.65;2.58;;;;;;;;;;4980040;28;20055;-66
2021/07/01 12:18:48;;;;;;;2.50;2.00;;;;;;;;;;4980358;28;20472;-66
2021/07/01 12:21:16;;;;;;;3.85;2.15;;;;;;;;;;4981771;28;20082;-66
2021/07/01 12:24:07;;;;;;;2.80;2.10;;;;;;;;;;4980098;28;20089;-67
2021/07/01 12:26:42;;;;;;;5.00;2.15;;;;;;;;;;4983684;28;20054;-66
2021/07/01 12:29:22;;;;;;;2.47;2.28;;;;;;;;;;4981867;28;20057;-66
2021/07/01 12:31:49;;;;;;;4.18;2.03;;;;;;;;;;4981114;28;20494;-66
2021/07/01 12:34:20;;;;;;;3.30;2.35;;;;;;;;;;4983268;28;20279;-66
2021/07/01 12:37:00;;;;;;;2.90;2.45;;;;;;;;;;4978930;28;20086;-68
2021/07/01 12:39:27;;;;;;;3.63;2.20;;;;;;;;;;4980477;28;20097;-67
2021/07/01 12:42:03;;;;;;;2.42;2.20;;;;;;;;;;4981515;28;20073;-66
2021/07/01 12:44:33;;;;;;;3.72;2.47;;;;;;;;;;4981689;28;20528;-67
2021/07/01 12:47:00;;;;;;;4.10;2.50;;;;;;;;;;4981201;28;20054;-65
2021/07/01 12:49:33;;;;;;;3.17;2.60;;;;;;;;;;4981280;28;20129;-66
2021/07/01 12:52:01;;;;;;;3.83;2.50;;;;;;;;;;4980606;28;20516;-70
2021/07/01 12:54:31;;;;;;;5.28;3.13;;;;;;;;;;4982509;28;20077;-65
2021/07/01 12:56:57;;;;;;;5.20;3.13;;;;;;;;;;4980183;28;20054;-65
2021/07/01 12:59:34;;;;;;;2.83;2.45;;;;;;;;;;4980299;28;20075;-73
2021/07/01 13:02:10;;;;;;;3.42;2.45;;;;;;;;;;4978663;28;20347;-71
2021/07/01 13:04:38;;;;;;;4.63;2.67;;;;;;;;;;4980930;28;20575;-71
2021/07/01 13:07:07;;;;;;;4.55;2.53;;;;;;;;;;4978699;28;20125;-69
2021/07/01 13:09:34;;;;;;;2.97;2.53;;;;;;;;;;4982456;28;20051;-74
2021/07/01 13:12:02;;;;;;;2.72;2.47;;;;;;;;;;4979159;28;20047;-70
2021/07/01 13:14:31;;;;;;;3.75;2.90;;;;;;;;;;4984024;28;20106;-67
2021/07/01 13:17:00;;;;;;;4.55;2.90;;;;;;;;;;4978657;28;20067;-70
2021/07/01 13:19:27;;;;;;;3.53;2.17;;;;;;;;;;4980096;28;20501;-68
2021/07/01 13:21:56;;;;;;;3.85;2.30;;;;;;;;;;4978635;28;20074;-70
2021/07/01 13:24:23;;;;;;;5.53;2.40;;;;;;;;;;4980546;28;20086;-69
2021/07/01 13:26:52;;;;;;;5.57;3.33;;;;;;;;;;4978958;28;20529;-72
2021/07/01 13:29:39;;;;;;;5.00;2.80;;;;;;;;;;4982144;28;20112;-70
2021/07/01 13:32:09;;;;;;;3.28;2.35;;;;;;;;;;4981458;28;20088;-70
2021/07/01 13:34:37;;;;;;;4.03;2.72;;;;;;;;;;4981335;28;20078;-65
2021/07/01 13:37:29;;;;;;;5.88;2.95;;;;;;;;;;4979339;28;20074;-65
2021/07/01 13:39:57;;;;;;;5.18;2.95;;;;;;;;;;4981554;28;20085;-64
2021/07/01 13:42:33;;;;;;;8.60;3.08;;;;;;;;;;4979626;28;20046;-64
2021/07/01 13:45:13;;;;;;;3.22;2.92;;;;;;;;;;4977790;28;20518;-64
2021/07/01 13:47:43;;;;;;;3.88;2.92;;;;;;;;;;4981500;28;20050;-64
2021/07/01 13:50:47;;;;;;;4.30;2.80;;;;;;;;;;4979412;28;20093;-64
2021/07/01 13:53:24;;;;;;;3.53;2.50;;;;;;;;;;4979116;28;20101;-65
2021/07/01 13:55:56;;;;;;;7.28;2.88;;;;;;;;;;4980010;28;20490;-63
2021/07/01 13:58:24;;;;;;;7.13;2.97;;;;;;;;;;4979081;28;20092;-65
2021/07/01 14:00:52;;;;;;;5.20;2.90;;;;;;;;;;4979621;28;20050;-64
2021/07/01 14:03:27;;;;;;;3.50;2.55;;;;;;;;;;4978275;28;20054;-65
2021/07/01 14:05:56;;;;;;;4.20;2.63;;;;;;;;;;4980958;28;20042;-65
2021/07/01 14:08:28;;;;;;;3.75;2.15;;;;;;;;;;4979628;28;20595;-64
2021/07/01 14:11:05;;;;;;;4.50;3.05;;;;;;;;;;4979366;28;20568;-64
2021/07/01 14:13:51;;;;;;;5.63;3.03;;;;;;;;;;4980902;28;20082;-65
2021/07/01 14:16:19;;;;;;;4.53;2.90;;;;;;;;;;4979448;28;20082;-65
2021/07/01 14:18:50;;;;;;;2.65;2.28;;;;;;;;;;4978501;28;20522;-65
2021/07/01 14:21:17;;;;;;;5.57;2.60;;;;;;;;;;4983086;28;20054;-66
2021/07/01 14:23:43;;;;;;;4.80;2.40;;;;;;;;;;4977669;28;20086;-68
2021/07/01 14:26:15;;;;;;;3.40;2.60;;;;;;;;;;4977685;28;20046;-70
2021/07/01 14:28:42;;;;;;;2.88;2.58;;;;;;;;;;4977769;28;20050;-70
2021/07/01 14:31:10;;;;;;;4.28;2.60;;;;;;;;;;4979340;28;20043;-70
2021/07/01 14:33:37;;;;;;;3.45;2.45;;;;;;;;;;4981359;28;20536;-69
2021/07/01 14:36:10;;;;;;;3.25;2.53;;;;;;;;;;4978453;28;20077;-71
2021/07/01 14:38:38;;;;;;;4.18;3.00;;;;;;;;;;4980704;28;20050;-69
2021/07/01 14:41:08;;;;;;;4.57;2.45;;;;;;;;;;4980090;28;20102;-70
2021/07/01 14:43:39;;;;;;;4.78;2.60;;;;;;;;;;4980867;28;20081;-69
2021/07/01 14:46:35;;;;;;;6.05;2.70;;;;;;;;;;4976380;28;20058;-69
2021/07/01 14:49:27;;;;;;;5.57;2.92;;;;;;;;;;4982389;28;20058;-68
2021/07/01 14:52:04;;;;;;;3.60;2.88;;;;;;;;;;4977312;28;20054;-72
2021/07/01 14:54:35;;;;;;;3.20;2.70;;;;;;;;;;4980736;28;20051;-69
2021/07/01 14:57:08;;;;;;;6.82;3.22;;;;;;;;;;4979832;28;20043;-67